Amherst, TX

5:34 AM CST on March 05, 2015 (GMT -0600)
Spade Coop | Change Station
CLOSE
Current Station
Personal Weather Station
Location: Littlefield, TX
Elevation: 3527 ft
Nearby Weather Stations

Elev 3527 ft 33.93 °N, 102.16 °W | Updated 1 minute ago

Mostly Cloudy
Mostly Cloudy
20.6 °F
Feels Like 14 °F
N
5.0
Wind Variable Wind from North
Gusts 9.0 mph

Today
High -- | Low -- °F
--% Chance of Precip.
Yesterday
High -- | Low -- °F
Precip. -- in
7:13 AM 6:49 PM
Full, 100% visible
Pressure 30.44 in
Visibility 10.0 miles
Clouds Clear
Windchill 14 °F
Dew Point 18 °F
Humidity 88%
Rainfall in
Snow Depth Not available.
UV 0 out of 12
Pollen .80 out of 12
Air Quality Not available.
Flu Activity Not available.
METAR KPVW 051115Z AUTO 32006KT 10SM CLR M08/M10 A3044 RMK AO2 T10811100

More Conditions Fewer Conditions

Pressure 30.44 in
Visibility 10.0 miles
Clouds Clear
Windchill 14 °F
Dew Point 18 °F
Humidity 88%
Rainfall in
Snow Depth Not available.
UV 0 out of 12
Pollen .80 out of 12
Air Quality Not available.
Flu Activity Not available.
METAR KPVW 051115Z AUTO 32006KT 10SM CLR M08/M10 A3044 RMK AO2 T10811100

More Conditions Fewer Conditions

10-Day Weather Forecast

Almanac

Astronomy

Mar. 05, 2015 Rise Set
Actual Time
Civil Twilight
Nautical Twilight
Astronomical Twilight
Moon
Length of Visible Light
Length of Day
Tomorrow will be .
, % of the Moon is Illuminated

Today's Extremes

State Highs State Lows

Community

WunderPhotos

Upload Photos

1,802,716 photos uploaded!

WunderBlogs® & News

Nearby

Air Quality

  Air Quality AQ Index Pollutant
Not available.

Snow Depth

Station Depth Elevation

Earthquake Activity

City Distance Mag. Time & Date
Minimum magnitude displayed is 2.5.

Coastal Water Temperatures

Place Temperature

Nearby Weather Stations